createdAt,value
2024-02-10T00:05:00.004Z,4.71
2024-02-10T00:20:02.735Z,4.79
2024-02-10T00:35:06.930Z,4.86
2024-02-10T00:50:09.851Z,4.90
2024-02-10T01:05:14.976Z,4.97
2024-02-10T01:20:18.146Z,5.10
2024-02-10T01:35:21.232Z,5.25
2024-02-10T01:50:23.926Z,5.33
2024-02-10T02:05:28.262Z,5.35
2024-02-10T02:20:32.899Z,5.41
2024-02-10T02:35:39.083Z,5.47
2024-02-10T02:50:45.006Z,5.53
2024-02-10T03:05:47.510Z,5.56
2024-02-10T03:20:50.297Z,5.58
2024-02-10T03:35:54.628Z,5.61
2024-02-10T03:50:57.182Z,5.62
2024-02-10T04:05:59.652Z,5.66
2024-02-10T04:21:04.645Z,5.68
2024-02-10T04:36:07.960Z,5.72
2024-02-10T04:51:10.521Z,5.77
2024-02-10T05:06:14.085Z,5.83
2024-02-10T05:21:21.006Z,5.90
2024-02-10T05:36:23.513Z,5.98
2024-02-10T05:51:26.193Z,6.07
2024-02-10T06:06:28.730Z,6.15
2024-02-10T08:22:41.977Z,7.94
2024-02-10T08:37:44.571Z,7.79
2024-02-10T09:00:28.680Z,7.77
2024-02-10T09:15:31.165Z,7.81
2024-02-10T09:30:36.208Z,7.93
2024-02-10T09:45:42.638Z,8.02
2024-02-10T10:00:45.455Z,8.07
2024-02-10T10:15:48.064Z,8.20
2024-02-10T10:30:53.640Z,8.46
2024-02-10T10:45:58.001Z,8.82
2024-02-10T11:01:03.952Z,9.25
2024-02-10T11:16:13.524Z,9.69
2024-02-10T11:31:18.214Z,9.91
2024-02-10T11:46:21.160Z,9.93
2024-02-10T12:01:25.007Z,9.95
2024-02-10T12:16:34.493Z,10.08
2024-02-10T12:31:41.908Z,10.32
2024-02-10T12:46:46.623Z,10.85
2024-02-10T13:01:49.647Z,11.25
2024-02-10T13:16:52.340Z,11.56
2024-02-10T13:31:57.051Z,11.61
2024-02-10T13:47:19.728Z,11.50
2024-02-10T14:02:41.038Z,11.21
2024-02-10T14:17:50.239Z,11.15
2024-02-10T14:32:57.031Z,10.68
2024-02-10T14:48:06.405Z,10.34
2024-02-10T15:03:15.113Z,10.06
2024-02-10T15:18:19.364Z,9.72
2024-02-10T15:33:22.669Z,9.56
2024-02-10T15:48:29.804Z,9.32
2024-02-10T16:03:34.631Z,9.05
2024-02-10T16:18:40.505Z,8.89
2024-02-10T16:33:43.130Z,8.70
2024-02-10T16:48:49.654Z,8.51
2024-02-10T17:03:54.246Z,8.31
2024-02-10T17:19:00.203Z,8.13
2024-02-10T17:34:03.547Z,7.98
2024-02-10T17:49:10.354Z,7.90
2024-02-10T18:04:15.203Z,7.82
2024-02-10T18:19:17.731Z,7.77
2024-02-10T18:34:21.253Z,7.67
2024-02-10T18:49:32.280Z,7.65
2024-02-10T19:04:36.671Z,7.58
2024-02-10T19:19:40.340Z,7.54
2024-02-10T19:34:45.625Z,7.47
2024-02-10T19:49:49.425Z,7.40
2024-02-10T20:04:52.423Z,7.34
2024-02-10T20:20:06.254Z,7.28
2024-02-10T20:35:10.317Z,7.26
2024-02-10T20:50:14.283Z,7.23
2024-02-10T21:05:18.137Z,7.18
2024-02-10T21:20:20.852Z,7.17
2024-02-10T21:35:23.344Z,7.12
2024-02-10T21:50:28.294Z,7.09
2024-02-10T22:05:31.661Z,7.07
2024-02-10T22:20:34.165Z,7.12
2024-02-10T22:35:37.831Z,7.15
2024-02-10T22:50:44.001Z,7.17
2024-02-10T23:05:46.716Z,7.15
2024-02-10T23:20:51.782Z,7.08
2024-02-10T23:35:56.591Z,7.04
2024-02-10T23:51:01.093Z,7.04
